sensor_id;sensor_type;location;lat;lon;timestamp;P1;durP1;ratioP1;P2;durP2;ratioP2
10333;SDS011;5212;47.892;16.406;2023-05-10T00:02:21;4.13;;;3.30;;
10333;SDS011;5212;47.892;16.406;2023-05-10T00:04:47;3.60;;;2.83;;
10333;SDS011;5212;47.892;16.406;2023-05-10T00:07:13;3.57;;;3.00;;
10333;SDS011;5212;47.892;16.406;2023-05-10T00:09:42;4.70;;;3.00;;
10333;SDS011;5212;47.892;16.406;2023-05-10T00:12:08;3.40;;;3.10;;
10333;SDS011;5212;47.892;16.406;2023-05-10T00:14:34;3.20;;;2.90;;
10333;SDS011;5212;47.892;16.406;2023-05-10T00:17:00;3.50;;;3.20;;
10333;SDS011;5212;47.892;16.406;2023-05-10T00:19:27;3.80;;;2.90;;
10333;SDS011;5212;47.892;16.406;2023-05-10T00:21:53;2.97;;;2.67;;
10333;SDS011;5212;47.892;16.406;2023-05-10T00:24:19;3.97;;;3.20;;
10333;SDS011;5212;47.892;16.406;2023-05-10T00:26:45;3.77;;;3.27;;
10333;SDS011;5212;47.892;16.406;2023-05-10T00:29:11;4.30;;;3.07;;
10333;SDS011;5212;47.892;16.406;2023-05-10T00:31:37;3.80;;;3.30;;
10333;SDS011;5212;47.892;16.406;2023-05-10T00:34:03;3.33;;;3.03;;
10333;SDS011;5212;47.892;16.406;2023-05-10T00:36:29;3.80;;;3.33;;
10333;SDS011;5212;47.892;16.406;2023-05-10T00:38:56;4.70;;;2.90;;
10333;SDS011;5212;47.892;16.406;2023-05-10T00:41:22;3.57;;;3.17;;
10333;SDS011;5212;47.892;16.406;2023-05-10T00:43:48;3.20;;;2.90;;
10333;SDS011;5212;47.892;16.406;2023-05-10T00:46:14;3.50;;;3.20;;
10333;SDS011;5212;47.892;16.406;2023-05-10T00:48:41;4.47;;;3.13;;
10333;SDS011;5212;47.892;16.406;2023-05-10T00:51:07;3.90;;;3.47;;
10333;SDS011;5212;47.892;16.406;2023-05-10T00:53:33;2.83;;;2.60;;
10333;SDS011;5212;47.892;16.406;2023-05-10T00:56:00;3.03;;;2.73;;
10333;SDS011;5212;47.892;16.406;2023-05-10T00:58:26;3.60;;;3.20;;
10333;SDS011;5212;47.892;16.406;2023-05-10T01:00:53;3.50;;;3.20;;
10333;SDS011;5212;47.892;16.406;2023-05-10T01:03:21;5.07;;;2.87;;
10333;SDS011;5212;47.892;16.406;2023-05-10T01:05:46;3.73;;;3.10;;
10333;SDS011;5212;47.892;16.406;2023-05-10T01:08:12;3.47;;;3.17;;
10333;SDS011;5212;47.892;16.406;2023-05-10T01:10:39;3.37;;;3.07;;
10333;SDS011;5212;47.892;16.406;2023-05-10T01:13:05;3.67;;;3.27;;
10333;SDS011;5212;47.892;16.406;2023-05-10T01:15:31;3.27;;;2.97;;
10333;SDS011;5212;47.892;16.406;2023-05-10T01:17:57;5.93;;;3.40;;
10333;SDS011;5212;47.892;16.406;2023-05-10T01:20:24;3.27;;;2.97;;
10333;SDS011;5212;47.892;16.406;2023-05-10T01:28:50;3.50;;;2.90;;
10333;SDS011;5212;47.892;16.406;2023-05-10T01:31:58;5.47;;;3.27;;
10333;SDS011;5212;47.892;16.406;2023-05-10T01:34:32;3.77;;;3.10;;
10333;SDS011;5212;47.892;16.406;2023-05-10T01:37:02;3.30;;;2.90;;
10333;SDS011;5212;47.892;16.406;2023-05-10T01:39:32;3.63;;;3.33;;
10333;SDS011;5212;47.892;16.406;2023-05-10T01:42:02;4.00;;;3.40;;
10333;SDS011;5212;47.892;16.406;2023-05-10T01:44:31;4.47;;;4.00;;
10333;SDS011;5212;47.892;16.406;2023-05-10T01:47:03;4.17;;;3.70;;
10333;SDS011;5212;47.892;16.406;2023-05-10T01:49:32;4.20;;;3.80;;
10333;SDS011;5212;47.892;16.406;2023-05-10T01:52:04;4.47;;;3.63;;
10333;SDS011;5212;47.892;16.406;2023-05-10T01:54:32;4.57;;;3.43;;
10333;SDS011;5212;47.892;16.406;2023-05-10T01:57:00;4.93;;;3.90;;
10333;SDS011;5212;47.892;16.406;2023-05-10T01:59:31;3.97;;;3.17;;
10333;SDS011;5212;47.892;16.406;2023-05-10T02:02:01;3.63;;;3.30;;
10333;SDS011;5212;47.892;16.406;2023-05-10T02:04:28;3.70;;;3.13;;
10333;SDS011;5212;47.892;16.406;2023-05-10T02:06:54;4.37;;;3.63;;
10333;SDS011;5212;47.892;16.406;2023-05-10T02:09:20;3.80;;;3.50;;
10333;SDS011;5212;47.892;16.406;2023-05-10T02:11:47;4.30;;;3.60;;
10333;SDS011;5212;47.892;16.406;2023-05-10T02:14:13;3.43;;;3.13;;
10333;SDS011;5212;47.892;16.406;2023-05-10T02:16:40;4.17;;;3.30;;
10333;SDS011;5212;47.892;16.406;2023-05-10T02:19:07;3.30;;;3.00;;
10333;SDS011;5212;47.892;16.406;2023-05-10T02:21:34;4.00;;;3.23;;
10333;SDS011;5212;47.892;16.406;2023-05-10T02:24:00;3.37;;;3.00;;
10333;SDS011;5212;47.892;16.406;2023-05-10T02:26:28;3.67;;;3.10;;
10333;SDS011;5212;47.892;16.406;2023-05-10T02:28:54;3.37;;;3.07;;
10333;SDS011;5212;47.892;16.406;2023-05-10T02:31:22;3.63;;;3.20;;
10333;SDS011;5212;47.892;16.406;2023-05-10T02:33:48;3.50;;;3.00;;
10333;SDS011;5212;47.892;16.406;2023-05-10T02:36:15;2.90;;;2.70;;
10333;SDS011;5212;47.892;16.406;2023-05-10T02:38:42;3.80;;;3.40;;
10333;SDS011;5212;47.892;16.406;2023-05-10T02:41:09;3.80;;;3.40;;
10333;SDS011;5212;47.892;16.406;2023-05-10T02:43:35;3.90;;;3.37;;
10333;SDS011;5212;47.892;16.406;2023-05-10T02:46:03;3.60;;;3.30;;
10333;SDS011;5212;47.892;16.406;2023-05-10T02:48:29;3.80;;;3.40;;
10333;SDS011;5212;47.892;16.406;2023-05-10T02:50:56;3.20;;;2.90;;
10333;SDS011;5212;47.892;16.406;2023-05-10T02:53:30;4.17;;;3.13;;
10333;SDS011;5212;47.892;16.406;2023-05-10T02:55:58;4.27;;;3.27;;
10333;SDS011;5212;47.892;16.406;2023-05-10T02:58:26;3.63;;;3.03;;
10333;SDS011;5212;47.892;16.406;2023-05-10T03:00:52;4.07;;;3.47;;
10333;SDS011;5212;47.892;16.406;2023-05-10T03:03:19;4.47;;;3.30;;
10333;SDS011;5212;47.892;16.406;2023-05-10T03:05:46;3.80;;;3.47;;
10333;SDS011;5212;47.892;16.406;2023-05-10T03:08:12;4.00;;;3.47;;
10333;SDS011;5212;47.892;16.406;2023-05-10T03:10:41;4.40;;;4.00;;
10333;SDS011;5212;47.892;16.406;2023-05-10T03:13:16;4.20;;;3.80;;
10333;SDS011;5212;47.892;16.406;2023-05-10T03:15:47;5.07;;;3.90;;
10333;SDS011;5212;47.892;16.406;2023-05-10T03:18:21;4.03;;;3.60;;
10333;SDS011;5212;47.892;16.406;2023-05-10T03:20:48;5.53;;;4.10;;
10333;SDS011;5212;47.892;16.406;2023-05-10T03:23:19;4.60;;;4.13;;
10333;SDS011;5212;47.892;16.406;2023-05-10T03:25:47;4.63;;;4.20;;
10333;SDS011;5212;47.892;16.406;2023-05-10T03:28:14;4.93;;;4.33;;
10333;SDS011;5212;47.892;16.406;2023-05-10T03:30:41;5.30;;;4.50;;
10333;SDS011;5212;47.892;16.406;2023-05-10T03:33:08;5.50;;;4.50;;
10333;SDS011;5212;47.892;16.406;2023-05-10T03:35:34;5.87;;;4.67;;
10333;SDS011;5212;47.892;16.406;2023-05-10T03:38:00;4.43;;;4.00;;
10333;SDS011;5212;47.892;16.406;2023-05-10T03:40:26;5.10;;;3.90;;
10333;SDS011;5212;47.892;16.406;2023-05-10T03:42:54;5.13;;;4.00;;
10333;SDS011;5212;47.892;16.406;2023-05-10T03:45:20;4.43;;;4.00;;
10333;SDS011;5212;47.892;16.406;2023-05-10T03:47:47;5.33;;;4.40;;
10333;SDS011;5212;47.892;16.406;2023-05-10T03:50:13;5.13;;;4.23;;
10333;SDS011;5212;47.892;16.406;2023-05-10T03:52:39;5.97;;;4.30;;
10333;SDS011;5212;47.892;16.406;2023-05-10T03:55:05;4.80;;;4.30;;
10333;SDS011;5212;47.892;16.406;2023-05-10T03:57:31;4.90;;;4.40;;
10333;SDS011;5212;47.892;16.406;2023-05-10T03:59:58;5.53;;;4.10;;
10333;SDS011;5212;47.892;16.406;2023-05-10T04:02:24;4.93;;;4.30;;
10333;SDS011;5212;47.892;16.406;2023-05-10T04:04:50;6.17;;;4.50;;
10333;SDS011;5212;47.892;16.406;2023-05-10T04:07:17;4.77;;;4.23;;
10333;SDS011;5212;47.892;16.406;2023-05-10T04:09:43;5.17;;;4.47;;
10333;SDS011;5212;47.892;16.406;2023-05-10T04:12:09;5.37;;;4.60;;
10333;SDS011;5212;47.892;16.406;2023-05-10T04:14:35;7.20;;;5.90;;
10333;SDS011;5212;47.892;16.406;2023-05-10T04:17:01;8.70;;;7.03;;
10333;SDS011;5212;47.892;16.406;2023-05-10T04:19:28;7.57;;;6.17;;
10333;SDS011;5212;47.892;16.406;2023-05-10T04:21:55;5.93;;;5.30;;
10333;SDS011;5212;47.892;16.406;2023-05-10T04:24:21;6.03;;;5.10;;
10333;SDS011;5212;47.892;16.406;2023-05-10T04:26:47;5.47;;;4.60;;
10333;SDS011;5212;47.892;16.406;2023-05-10T04:29:13;5.20;;;4.50;;
10333;SDS011;5212;47.892;16.406;2023-05-10T04:31:39;5.10;;;4.20;;
10333;SDS011;5212;47.892;16.406;2023-05-10T04:34:05;5.13;;;4.53;;
10333;SDS011;5212;47.892;16.406;2023-05-10T04:36:32;5.10;;;4.40;;
10333;SDS011;5212;47.892;16.406;2023-05-10T04:39:00;5.00;;;4.33;;
10333;SDS011;5212;47.892;16.406;2023-05-10T04:41:27;4.93;;;4.43;;
10333;SDS011;5212;47.892;16.406;2023-05-10T04:43:54;6.43;;;5.40;;
10333;SDS011;5212;47.892;16.406;2023-05-10T04:46:20;5.93;;;4.90;;
10333;SDS011;5212;47.892;16.406;2023-05-10T04:48:46;6.47;;;5.40;;
10333;SDS011;5212;47.892;16.406;2023-05-10T04:51:12;6.50;;;4.73;;
10333;SDS011;5212;47.892;16.406;2023-05-10T04:53:38;6.47;;;5.27;;
10333;SDS011;5212;47.892;16.406;2023-05-10T04:56:04;5.27;;;4.63;;
10333;SDS011;5212;47.892;16.406;2023-05-10T04:58:31;5.80;;;4.53;;
10333;SDS011;5212;47.892;16.406;2023-05-10T05:01:04;6.53;;;4.73;;
10333;SDS011;5212;47.892;16.406;2023-05-10T05:03:31;6.33;;;4.93;;
10333;SDS011;5212;47.892;16.406;2023-05-10T05:05:57;6.43;;;4.87;;
10333;SDS011;5212;47.892;16.406;2023-05-10T05:08:24;4.83;;;4.30;;
10333;SDS011;5212;47.892;16.406;2023-05-10T05:10:50;5.13;;;4.30;;
10333;SDS011;5212;47.892;16.406;2023-05-10T05:13:16;5.20;;;4.67;;
10333;SDS011;5212;47.892;16.406;2023-05-10T05:15:42;5.33;;;4.63;;
10333;SDS011;5212;47.892;16.406;2023-05-10T05:18:08;4.73;;;4.23;;
10333;SDS011;5212;47.892;16.406;2023-05-10T05:20:34;6.13;;;4.60;;
10333;SDS011;5212;47.892;16.406;2023-05-10T05:23:00;5.03;;;4.40;;
10333;SDS011;5212;47.892;16.406;2023-05-10T05:25:27;5.57;;;4.83;;
10333;SDS011;5212;47.892;16.406;2023-05-10T05:27:53;5.50;;;4.67;;
10333;SDS011;5212;47.892;16.406;2023-05-10T05:30:19;6.80;;;4.60;;
10333;SDS011;5212;47.892;16.406;2023-05-10T05:32:45;5.30;;;4.80;;
10333;SDS011;5212;47.892;16.406;2023-05-10T05:35:12;6.00;;;4.73;;
10333;SDS011;5212;47.892;16.406;2023-05-10T05:37:38;5.50;;;4.77;;
10333;SDS011;5212;47.892;16.406;2023-05-10T05:40:04;5.50;;;4.97;;
10333;SDS011;5212;47.892;16.406;2023-05-10T05:42:32;7.47;;;5.27;;
10333;SDS011;5212;47.892;16.406;2023-05-10T05:44:58;5.50;;;4.73;;
10333;SDS011;5212;47.892;16.406;2023-05-10T05:47:24;8.53;;;4.70;;
10333;SDS011;5212;47.892;16.406;2023-05-10T05:49:50;5.30;;;4.40;;
10333;SDS011;5212;47.892;16.406;2023-05-10T05:52:16;5.77;;;4.63;;
10333;SDS011;5212;47.892;16.406;2023-05-10T05:54:42;5.00;;;4.43;;
10333;SDS011;5212;47.892;16.406;2023-05-10T05:57:08;4.53;;;4.13;;
10333;SDS011;5212;47.892;16.406;2023-05-10T05:59:35;5.63;;;5.00;;
10333;SDS011;5212;47.892;16.406;2023-05-10T06:02:01;6.00;;;4.17;;
10333;SDS011;5212;47.892;16.406;2023-05-10T06:04:27;7.07;;;4.37;;
10333;SDS011;5212;47.892;16.406;2023-05-10T06:06:53;5.40;;;4.40;;
10333;SDS011;5212;47.892;16.406;2023-05-10T06:09:19;4.40;;;3.97;;
10333;SDS011;5212;47.892;16.406;2023-05-10T06:11:45;5.17;;;4.67;;
10333;SDS011;5212;47.892;16.406;2023-05-10T06:14:11;8.13;;;5.03;;
10333;SDS011;5212;47.892;16.406;2023-05-10T06:16:38;5.00;;;4.20;;
10333;SDS011;5212;47.892;16.406;2023-05-10T06:19:04;4.57;;;4.17;;
10333;SDS011;5212;47.892;16.406;2023-05-10T06:21:30;5.13;;;4.63;;
10333;SDS011;5212;47.892;16.406;2023-05-10T06:23:56;5.70;;;4.30;;
10333;SDS011;5212;47.892;16.406;2023-05-10T06:26:22;5.50;;;4.57;;
10333;SDS011;5212;47.892;16.406;2023-05-10T06:28:48;6.43;;;4.10;;
10333;SDS011;5212;47.892;16.406;2023-05-10T06:31:14;8.73;;;4.30;;
10333;SDS011;5212;47.892;16.406;2023-05-10T06:33:41;4.43;;;3.77;;
10333;SDS011;5212;47.892;16.406;2023-05-10T06:36:07;4.43;;;3.93;;
10333;SDS011;5212;47.892;16.406;2023-05-10T06:38:33;5.83;;;4.30;;
10333;SDS011;5212;47.892;16.406;2023-05-10T06:40:59;4.27;;;3.87;;
10333;SDS011;5212;47.892;16.406;2023-05-10T06:43:25;4.50;;;3.97;;
10333;SDS011;5212;47.892;16.406;2023-05-10T06:45:53;4.50;;;4.10;;
10333;SDS011;5212;47.892;16.406;2023-05-10T06:48:19;4.97;;;4.00;;
10333;SDS011;5212;47.892;16.406;2023-05-10T06:50:46;5.67;;;4.30;;
10333;SDS011;5212;47.892;16.406;2023-05-10T06:53:12;4.13;;;3.70;;
10333;SDS011;5212;47.892;16.406;2023-05-10T06:55:38;4.27;;;3.47;;
10333;SDS011;5212;47.892;16.406;2023-05-10T06:58:04;4.20;;;3.60;;
10333;SDS011;5212;47.892;16.406;2023-05-10T07:00:31;4.63;;;3.77;;
10333;SDS011;5212;47.892;16.406;2023-05-10T07:02:57;4.87;;;4.03;;
10333;SDS011;5212;47.892;16.406;2023-05-10T07:05:23;6.03;;;4.37;;
10333;SDS011;5212;47.892;16.406;2023-05-10T07:07:50;6.73;;;4.40;;
10333;SDS011;5212;47.892;16.406;2023-05-10T07:10:16;4.70;;;4.17;;
10333;SDS011;5212;47.892;16.406;2023-05-10T07:12:42;4.87;;;4.23;;
10333;SDS011;5212;47.892;16.406;2023-05-10T07:15:08;5.30;;;4.37;;
10333;SDS011;5212;47.892;16.406;2023-05-10T07:17:35;5.97;;;4.50;;
10333;SDS011;5212;47.892;16.406;2023-05-10T07:20:01;6.27;;;4.40;;
10333;SDS011;5212;47.892;16.406;2023-05-10T07:22:27;5.30;;;4.47;;
10333;SDS011;5212;47.892;16.406;2023-05-10T07:24:54;6.10;;;4.80;;
10333;SDS011;5212;47.892;16.406;2023-05-10T07:27:20;5.57;;;5.00;;
10333;SDS011;5212;47.892;16.406;2023-05-10T07:29:46;7.10;;;4.50;;
10333;SDS011;5212;47.892;16.406;2023-05-10T07:32:12;6.43;;;4.37;;
10333;SDS011;5212;47.892;16.406;2023-05-10T07:34:38;4.30;;;3.90;;
10333;SDS011;5212;47.892;16.406;2023-05-10T07:37:04;5.40;;;4.90;;
10333;SDS011;5212;47.892;16.406;2023-05-10T07:39:31;6.43;;;4.00;;
10333;SDS011;5212;47.892;16.406;2023-05-10T07:41:57;5.23;;;4.60;;
10333;SDS011;5212;47.892;16.406;2023-05-10T07:44:23;6.40;;;4.20;;
10333;SDS011;5212;47.892;16.406;2023-05-10T07:46:49;5.13;;;3.90;;
10333;SDS011;5212;47.892;16.406;2023-05-10T07:49:15;5.93;;;4.47;;
10333;SDS011;5212;47.892;16.406;2023-05-10T07:51:41;5.07;;;4.57;;
10333;SDS011;5212;47.892;16.406;2023-05-10T07:54:08;7.93;;;5.17;;
10333;SDS011;5212;47.892;16.406;2023-05-10T07:56:34;4.90;;;3.90;;
10333;SDS011;5212;47.892;16.406;2023-05-10T07:59:01;6.40;;;4.53;;
10333;SDS011;5212;47.892;16.406;2023-05-10T08:01:29;4.13;;;3.73;;
10333;SDS011;5212;47.892;16.406;2023-05-10T08:03:56;4.70;;;4.30;;
10333;SDS011;5212;47.892;16.406;2023-05-10T08:06:22;6.53;;;4.60;;
10333;SDS011;5212;47.892;16.406;2023-05-10T08:08:48;8.00;;;5.27;;
10333;SDS011;5212;47.892;16.406;2023-05-10T08:11:15;8.13;;;5.37;;
10333;SDS011;5212;47.892;16.406;2023-05-10T08:13:41;6.67;;;4.83;;
10333;SDS011;5212;47.892;16.406;2023-05-10T08:16:08;5.97;;;4.87;;
10333;SDS011;5212;47.892;16.406;2023-05-10T08:18:34;6.07;;;3.90;;
10333;SDS011;5212;47.892;16.406;2023-05-10T08:21:00;5.13;;;3.70;;
10333;SDS011;5212;47.892;16.406;2023-05-10T08:23:26;4.33;;;3.60;;
10333;SDS011;5212;47.892;16.406;2023-05-10T08:25:52;4.17;;;3.77;;
10333;SDS011;5212;47.892;16.406;2023-05-10T08:28:18;5.07;;;4.27;;
10333;SDS011;5212;47.892;16.406;2023-05-10T08:30:44;6.63;;;4.30;;
10333;SDS011;5212;47.892;16.406;2023-05-10T08:33:10;4.07;;;3.67;;
10333;SDS011;5212;47.892;16.406;2023-05-10T08:35:36;4.00;;;3.40;;
10333;SDS011;5212;47.892;16.406;2023-05-10T08:38:02;3.93;;;3.57;;
10333;SDS011;5212;47.892;16.406;2023-05-10T08:40:28;5.63;;;4.00;;
10333;SDS011;5212;47.892;16.406;2023-05-10T08:42:55;3.90;;;3.50;;
10333;SDS011;5212;47.892;16.406;2023-05-10T08:45:24;4.33;;;3.93;;
10333;SDS011;5212;47.892;16.406;2023-05-10T08:47:50;3.77;;;3.47;;
10333;SDS011;5212;47.892;16.406;2023-05-10T08:50:17;5.23;;;3.80;;
10333;SDS011;5212;47.892;16.406;2023-05-10T08:52:46;4.80;;;3.43;;
10333;SDS011;5212;47.892;16.406;2023-05-10T08:55:14;5.10;;;3.83;;
10333;SDS011;5212;47.892;16.406;2023-05-10T08:57:41;4.40;;;3.60;;
10333;SDS011;5212;47.892;16.406;2023-05-10T09:00:07;4.13;;;3.30;;
10333;SDS011;5212;47.892;16.406;2023-05-10T09:02:34;4.33;;;3.17;;
10333;SDS011;5212;47.892;16.406;2023-05-10T09:05:00;5.50;;;3.33;;
10333;SDS011;5212;47.892;16.406;2023-05-10T09:07:28;3.23;;;2.87;;
10333;SDS011;5212;47.892;16.406;2023-05-10T09:09:54;3.40;;;3.10;;
10333;SDS011;5212;47.892;16.406;2023-05-10T09:12:20;4.27;;;2.93;;
10333;SDS011;5212;47.892;16.406;2023-05-10T09:14:48;2.37;;;2.17;;
10333;SDS011;5212;47.892;16.406;2023-05-10T09:17:15;3.00;;;2.50;;
10333;SDS011;5212;47.892;16.406;2023-05-10T09:19:41;3.30;;;2.10;;
10333;SDS011;5212;47.892;16.406;2023-05-10T09:22:07;2.50;;;2.20;;
10333;SDS011;5212;47.892;16.406;2023-05-10T09:24:33;2.50;;;2.20;;
10333;SDS011;5212;47.892;16.406;2023-05-10T09:26:59;2.40;;;2.20;;
10333;SDS011;5212;47.892;16.406;2023-05-10T09:29:28;2.23;;;2.03;;
10333;SDS011;5212;47.892;16.406;2023-05-10T09:32:04;2.90;;;1.80;;
10333;SDS011;5212;47.892;16.406;2023-05-10T09:34:31;3.30;;;1.77;;
10333;SDS011;5212;47.892;16.406;2023-05-10T09:36:58;5.30;;;2.10;;
10333;SDS011;5212;47.892;16.406;2023-05-10T09:39:29;2.97;;;1.90;;
10333;SDS011;5212;47.892;16.406;2023-05-10T09:41:58;1.77;;;1.63;;
10333;SDS011;5212;47.892;16.406;2023-05-10T09:44:25;1.83;;;1.60;;
10333;SDS011;5212;47.892;16.406;2023-05-10T09:46:51;2.00;;;1.80;;
10333;SDS011;5212;47.892;16.406;2023-05-10T09:49:18;2.63;;;1.67;;
10333;SDS011;5212;47.892;16.406;2023-05-10T09:51:44;2.87;;;1.63;;
10333;SDS011;5212;47.892;16.406;2023-05-10T09:54:11;1.93;;;1.60;;
10333;SDS011;5212;47.892;16.406;2023-05-10T09:56:38;3.50;;;2.00;;
10333;SDS011;5212;47.892;16.406;2023-05-10T09:59:06;2.83;;;2.00;;
10333;SDS011;5212;47.892;16.406;2023-05-10T10:01:33;1.80;;;1.67;;
10333;SDS011;5212;47.892;16.406;2023-05-10T10:03:59;4.00;;;1.63;;
10333;SDS011;5212;47.892;16.406;2023-05-10T10:06:28;3.23;;;2.03;;
10333;SDS011;5212;47.892;16.406;2023-05-10T10:08:55;3.83;;;2.03;;
10333;SDS011;5212;47.892;16.406;2023-05-10T10:11:22;2.07;;;1.70;;
10333;SDS011;5212;47.892;16.406;2023-05-10T10:13:49;2.70;;;1.90;;
10333;SDS011;5212;47.892;16.406;2023-05-10T10:16:16;2.23;;;1.60;;
10333;SDS011;5212;47.892;16.406;2023-05-10T10:18:42;1.87;;;1.60;;
10333;SDS011;5212;47.892;16.406;2023-05-10T10:21:08;6.73;;;1.90;;
10333;SDS011;5212;47.892;16.406;2023-05-10T10:23:34;1.80;;;1.70;;
10333;SDS011;5212;47.892;16.406;2023-05-10T10:26:00;2.03;;;1.77;;
10333;SDS011;5212;47.892;16.406;2023-05-10T10:28:32;2.13;;;1.87;;
10333;SDS011;5212;47.892;16.406;2023-05-10T10:31:02;2.20;;;1.90;;
10333;SDS011;5212;47.892;16.406;2023-05-10T10:33:44;3.13;;;2.20;;
10333;SDS011;5212;47.892;16.406;2023-05-10T10:36:17;2.40;;;2.20;;
10333;SDS011;5212;47.892;16.406;2023-05-10T10:38:58;2.17;;;1.90;;
10333;SDS011;5212;47.892;16.406;2023-05-10T10:41:29;2.37;;;2.10;;
10333;SDS011;5212;47.892;16.406;2023-05-10T10:47:04;2.30;;;2.10;;
10333;SDS011;5212;47.892;16.406;2023-05-10T10:49:37;2.00;;;1.90;;
10333;SDS011;5212;47.892;16.406;2023-05-10T10:52:14;2.53;;;2.00;;
10333;SDS011;5212;47.892;16.406;2023-05-10T10:54:41;2.40;;;2.00;;
10333;SDS011;5212;47.892;16.406;2023-05-10T10:57:10;4.23;;;2.00;;
10333;SDS011;5212;47.892;16.406;2023-05-10T10:59:40;4.03;;;1.90;;
10333;SDS011;5212;47.892;16.406;2023-05-10T11:02:08;2.10;;;1.90;;
10333;SDS011;5212;47.892;16.406;2023-05-10T11:04:41;3.03;;;1.80;;
10333;SDS011;5212;47.892;16.406;2023-05-10T11:07:17;3.03;;;1.93;;
10333;SDS011;5212;47.892;16.406;2023-05-10T11:09:43;2.53;;;2.00;;
10333;SDS011;5212;47.892;16.406;2023-05-10T11:12:09;2.00;;;1.90;;
10333;SDS011;5212;47.892;16.406;2023-05-10T11:14:35;2.13;;;1.80;;
10333;SDS011;5212;47.892;16.406;2023-05-10T11:17:01;2.60;;;2.17;;
10333;SDS011;5212;47.892;16.406;2023-05-10T11:19:27;2.10;;;1.90;;
10333;SDS011;5212;47.892;16.406;2023-05-10T11:24:38;1.63;;;1.53;;
10333;SDS011;5212;47.892;16.406;2023-05-10T11:27:05;1.90;;;1.77;;
10333;SDS011;5212;47.892;16.406;2023-05-10T11:29:31;1.70;;;1.60;;
10333;SDS011;5212;47.892;16.406;2023-05-10T11:31:57;1.97;;;1.70;;
10333;SDS011;5212;47.892;16.406;2023-05-10T11:34:24;1.60;;;1.50;;
10333;SDS011;5212;47.892;16.406;2023-05-10T11:36:51;2.60;;;1.50;;
10333;SDS011;5212;47.892;16.406;2023-05-10T11:39:19;1.60;;;1.50;;
10333;SDS011;5212;47.892;16.406;2023-05-10T11:41:46;2.00;;;1.60;;
10333;SDS011;5212;47.892;16.406;2023-05-10T11:44:13;1.50;;;1.40;;
10333;SDS011;5212;47.892;16.406;2023-05-10T11:46:39;2.00;;;1.60;;
10333;SDS011;5212;47.892;16.406;2023-05-10T11:49:06;1.43;;;1.33;;
10333;SDS011;5212;47.892;16.406;2023-05-10T11:51:33;1.70;;;1.40;;
10333;SDS011;5212;47.892;16.406;2023-05-10T11:54:00;3.87;;;1.50;;
10333;SDS011;5212;47.892;16.406;2023-05-10T11:56:28;4.53;;;1.83;;
10333;SDS011;5212;47.892;16.406;2023-05-10T11:58:54;1.93;;;1.60;;
10333;SDS011;5212;47.892;16.406;2023-05-10T12:01:21;2.10;;;1.40;;
10333;SDS011;5212;47.892;16.406;2023-05-10T12:03:48;1.37;;;1.20;;
10333;SDS011;5212;47.892;16.406;2023-05-10T12:06:14;2.07;;;1.83;;
10333;SDS011;5212;47.892;16.406;2023-05-10T12:08:43;2.37;;;1.63;;
10333;SDS011;5212;47.892;16.406;2023-05-10T12:11:10;2.30;;;1.50;;
10333;SDS011;5212;47.892;16.406;2023-05-10T12:13:38;2.20;;;1.60;;
10333;SDS011;5212;47.892;16.406;2023-05-10T12:16:12;2.37;;;1.40;;
10333;SDS011;5212;47.892;16.406;2023-05-10T12:18:38;5.10;;;1.83;;
10333;SDS011;5212;47.892;16.406;2023-05-10T12:21:05;2.60;;;1.50;;
10333;SDS011;5212;47.892;16.406;2023-05-10T12:23:31;2.07;;;1.37;;
10333;SDS011;5212;47.892;16.406;2023-05-10T12:26:01;2.07;;;1.30;;
10333;SDS011;5212;47.892;16.406;2023-05-10T12:28:29;2.50;;;1.43;;
10333;SDS011;5212;47.892;16.406;2023-05-10T12:30:56;2.27;;;1.60;;
10333;SDS011;5212;47.892;16.406;2023-05-10T12:33:23;1.80;;;1.43;;
10333;SDS011;5212;47.892;16.406;2023-05-10T12:35:49;2.03;;;1.80;;
10333;SDS011;5212;47.892;16.406;2023-05-10T12:38:26;2.10;;;1.83;;
10333;SDS011;5212;47.892;16.406;2023-05-10T12:40:54;2.83;;;1.50;;
10333;SDS011;5212;47.892;16.406;2023-05-10T12:43:20;2.23;;;1.50;;
10333;SDS011;5212;47.892;16.406;2023-05-10T12:45:46;2.20;;;1.33;;
10333;SDS011;5212;47.892;16.406;2023-05-10T12:48:14;1.60;;;1.40;;
10333;SDS011;5212;47.892;16.406;2023-05-10T12:50:40;1.80;;;1.67;;
10333;SDS011;5212;47.892;16.406;2023-05-10T12:53:06;1.53;;;1.43;;
10333;SDS011;5212;47.892;16.406;2023-05-10T12:55:32;2.53;;;1.60;;
10333;SDS011;5212;47.892;16.406;2023-05-10T12:57:58;1.77;;;1.67;;
10333;SDS011;5212;47.892;16.406;2023-05-10T13:00:24;3.43;;;1.80;;
10333;SDS011;5212;47.892;16.406;2023-05-10T13:02:50;3.53;;;1.50;;
10333;SDS011;5212;47.892;16.406;2023-05-10T13:05:17;1.70;;;1.60;;
10333;SDS011;5212;47.892;16.406;2023-05-10T13:07:43;3.00;;;1.70;;
10333;SDS011;5212;47.892;16.406;2023-05-10T13:10:10;2.40;;;1.70;;
10333;SDS011;5212;47.892;16.406;2023-05-10T13:12:36;1.70;;;1.60;;
10333;SDS011;5212;47.892;16.406;2023-05-10T13:15:02;1.67;;;1.57;;
10333;SDS011;5212;47.892;16.406;2023-05-10T13:17:29;3.57;;;1.73;;
10333;SDS011;5212;47.892;16.406;2023-05-10T13:19:55;2.20;;;1.90;;
10333;SDS011;5212;47.892;16.406;2023-05-10T13:22:22;2.10;;;1.90;;
10333;SDS011;5212;47.892;16.406;2023-05-10T13:24:47;2.83;;;2.17;;
10333;SDS011;5212;47.892;16.406;2023-05-10T13:27:13;1.80;;;1.70;;
10333;SDS011;5212;47.892;16.406;2023-05-10T13:29:40;1.90;;;1.70;;
10333;SDS011;5212;47.892;16.406;2023-05-10T13:32:06;3.30;;;1.90;;
10333;SDS011;5212;47.892;16.406;2023-05-10T13:34:32;2.00;;;1.70;;
10333;SDS011;5212;47.892;16.406;2023-05-10T13:36:58;1.80;;;1.70;;
10333;SDS011;5212;47.892;16.406;2023-05-10T13:39:25;2.10;;;1.90;;
10333;SDS011;5212;47.892;16.406;2023-05-10T13:41:51;2.10;;;1.90;;
10333;SDS011;5212;47.892;16.406;2023-05-10T13:44:17;3.37;;;1.93;;
10333;SDS011;5212;47.892;16.406;2023-05-10T13:46:43;2.93;;;1.70;;
10333;SDS011;5212;47.892;16.406;2023-05-10T13:49:09;2.67;;;1.60;;
10333;SDS011;5212;47.892;16.406;2023-05-10T13:51:35;2.13;;;1.77;;
10333;SDS011;5212;47.892;16.406;2023-05-10T13:54:01;2.07;;;1.67;;
10333;SDS011;5212;47.892;16.406;2023-05-10T13:56:28;2.47;;;1.83;;
10333;SDS011;5212;47.892;16.406;2023-05-10T13:58:55;2.83;;;1.87;;
10333;SDS011;5212;47.892;16.406;2023-05-10T14:01:22;2.20;;;2.00;;
10333;SDS011;5212;47.892;16.406;2023-05-10T14:03:48;3.17;;;2.00;;
10333;SDS011;5212;47.892;16.406;2023-05-10T14:06:14;2.13;;;1.67;;
10333;SDS011;5212;47.892;16.406;2023-05-10T14:08:40;1.90;;;1.70;;
10333;SDS011;5212;47.892;16.406;2023-05-10T14:11:07;2.30;;;1.70;;
10333;SDS011;5212;47.892;16.406;2023-05-10T14:13:33;2.10;;;1.77;;
10333;SDS011;5212;47.892;16.406;2023-05-10T14:15:59;2.27;;;1.70;;
10333;SDS011;5212;47.892;16.406;2023-05-10T14:18:25;2.67;;;1.97;;
10333;SDS011;5212;47.892;16.406;2023-05-10T14:20:51;2.47;;;1.77;;
10333;SDS011;5212;47.892;16.406;2023-05-10T14:23:17;6.00;;;1.90;;
10333;SDS011;5212;47.892;16.406;2023-05-10T14:25:48;1.80;;;1.70;;
10333;SDS011;5212;47.892;16.406;2023-05-10T14:28:14;1.93;;;1.60;;
10333;SDS011;5212;47.892;16.406;2023-05-10T14:30:41;3.33;;;1.90;;
10333;SDS011;5212;47.892;16.406;2023-05-10T14:33:07;2.83;;;1.70;;
10333;SDS011;5212;47.892;16.406;2023-05-10T14:35:33;2.63;;;1.73;;
10333;SDS011;5212;47.892;16.406;2023-05-10T14:37:59;1.83;;;1.60;;
10333;SDS011;5212;47.892;16.406;2023-05-10T14:40:25;2.03;;;1.83;;
10333;SDS011;5212;47.892;16.406;2023-05-10T14:42:51;2.00;;;1.80;;
10333;SDS011;5212;47.892;16.406;2023-05-10T14:45:18;1.90;;;1.80;;
10333;SDS011;5212;47.892;16.406;2023-05-10T14:47:45;2.87;;;1.77;;
10333;SDS011;5212;47.892;16.406;2023-05-10T14:50:11;1.60;;;1.50;;
10333;SDS011;5212;47.892;16.406;2023-05-10T14:52:37;2.70;;;1.80;;
10333;SDS011;5212;47.892;16.406;2023-05-10T14:55:03;1.73;;;1.63;;
10333;SDS011;5212;47.892;16.406;2023-05-10T14:57:29;1.70;;;1.60;;
10333;SDS011;5212;47.892;16.406;2023-05-10T14:59:56;2.17;;;1.60;;